sensor_id;sensor_type;location;lat;lon;timestamp;P1;durP1;ratioP1;P2;durP2;ratioP2
42186;SDS011;27858;51.414;0.018;2022-12-29T00:01:41;12.38;;;3.47;;
42186;SDS011;27858;51.414;0.018;2022-12-29T00:04:09;6.20;;;2.83;;
42186;SDS011;27858;51.414;0.018;2022-12-29T00:06:41;17.00;;;3.63;;
42186;SDS011;27858;51.414;0.018;2022-12-29T00:09:10;9.18;;;2.35;;
42186;SDS011;27858;51.414;0.018;2022-12-29T00:11:38;18.08;;;3.92;;
42186;SDS011;27858;51.414;0.018;2022-12-29T00:14:05;18.23;;;3.63;;
42186;SDS011;27858;51.414;0.018;2022-12-29T00:16:52;11.45;;;2.85;;
42186;SDS011;27858;51.414;0.018;2022-12-29T00:19:19;8.18;;;2.67;;
42186;SDS011;27858;51.414;0.018;2022-12-29T00:22:05;12.60;;;4.57;;
42186;SDS011;27858;51.414;0.018;2022-12-29T00:24:52;9.80;;;2.25;;
42186;SDS011;27858;51.414;0.018;2022-12-29T00:27:19;12.25;;;2.60;;
42186;SDS011;27858;51.414;0.018;2022-12-29T00:30:08;21.75;;;3.63;;
42186;SDS011;27858;51.414;0.018;2022-12-29T00:32:54;10.35;;;2.83;;
42186;SDS011;27858;51.414;0.018;2022-12-29T00:35:44;12.50;;;2.38;;
42186;SDS011;27858;51.414;0.018;2022-12-29T00:38:14;11.40;;;2.10;;
42186;SDS011;27858;51.414;0.018;2022-12-29T00:40:59;11.77;;;2.67;;
42186;SDS011;27858;51.414;0.018;2022-12-29T00:43:45;10.05;;;2.20;;
42186;SDS011;27858;51.414;0.018;2022-12-29T00:46:30;11.05;;;3.28;;
42186;SDS011;27858;51.414;0.018;2022-12-29T00:49:01;9.35;;;2.83;;
42186;SDS011;27858;51.414;0.018;2022-12-29T00:51:47;17.80;;;3.05;;
42186;SDS011;27858;51.414;0.018;2022-12-29T00:54:15;11.88;;;2.35;;
42186;SDS011;27858;51.414;0.018;2022-12-29T00:56:45;16.58;;;3.55;;
42186;SDS011;27858;51.414;0.018;2022-12-29T00:59:13;13.18;;;2.70;;
42186;SDS011;27858;51.414;0.018;2022-12-29T01:01:40;11.43;;;2.88;;
42186;SDS011;27858;51.414;0.018;2022-12-29T01:04:08;9.93;;;3.15;;
42186;SDS011;27858;51.414;0.018;2022-12-29T01:06:36;9.10;;;2.95;;
42186;SDS011;27858;51.414;0.018;2022-12-29T01:09:03;10.20;;;2.97;;
42186;SDS011;27858;51.414;0.018;2022-12-29T01:11:50;10.93;;;2.20;;
42186;SDS011;27858;51.414;0.018;2022-12-29T01:14:17;13.63;;;3.60;;
42186;SDS011;27858;51.414;0.018;2022-12-29T01:16:45;12.90;;;3.05;;
42186;SDS011;27858;51.414;0.018;2022-12-29T01:19:13;7.72;;;2.47;;
42186;SDS011;27858;51.414;0.018;2022-12-29T01:21:43;14.10;;;2.90;;
42186;SDS011;27858;51.414;0.018;2022-12-29T01:24:10;15.02;;;3.33;;
42186;SDS011;27858;51.414;0.018;2022-12-29T01:26:37;20.35;;;3.15;;
42186;SDS011;27858;51.414;0.018;2022-12-29T01:29:04;23.00;;;3.53;;
42186;SDS011;27858;51.414;0.018;2022-12-29T01:31:31;10.27;;;2.85;;
42186;SDS011;27858;51.414;0.018;2022-12-29T01:33:58;19.45;;;3.30;;
42186;SDS011;27858;51.414;0.018;2022-12-29T01:36:24;13.63;;;3.53;;
42186;SDS011;27858;51.414;0.018;2022-12-29T01:38:51;16.70;;;4.55;;
42186;SDS011;27858;51.414;0.018;2022-12-29T01:41:18;16.25;;;4.45;;
42186;SDS011;27858;51.414;0.018;2022-12-29T01:46:23;20.55;;;2.92;;
42186;SDS011;27858;51.414;0.018;2022-12-29T01:48:59;14.38;;;3.47;;
42186;SDS011;27858;51.414;0.018;2022-12-29T01:51:44;9.35;;;2.88;;
42186;SDS011;27858;51.414;0.018;2022-12-29T01:54:17;12.43;;;3.60;;
42186;SDS011;27858;51.414;0.018;2022-12-29T01:56:52;15.02;;;4.22;;
42186;SDS011;27858;51.414;0.018;2022-12-29T01:59:22;11.73;;;3.25;;
42186;SDS011;27858;51.414;0.018;2022-12-29T02:01:53;10.10;;;2.65;;
42186;SDS011;27858;51.414;0.018;2022-12-29T02:04:21;14.05;;;3.00;;
42186;SDS011;27858;51.414;0.018;2022-12-29T02:06:51;9.45;;;2.17;;
42186;SDS011;27858;51.414;0.018;2022-12-29T02:09:21;13.38;;;3.95;;
42186;SDS011;27858;51.414;0.018;2022-12-29T02:11:49;19.20;;;3.85;;
42186;SDS011;27858;51.414;0.018;2022-12-29T02:14:16;18.67;;;3.47;;
42186;SDS011;27858;51.414;0.018;2022-12-29T02:34:54;25.83;;;5.18;;
42186;SDS011;27858;51.414;0.018;2022-12-29T02:40:23;12.50;;;3.90;;
42186;SDS011;27858;51.414;0.018;2022-12-29T02:43:03;13.23;;;2.53;;
42186;SDS011;27858;51.414;0.018;2022-12-29T02:45:45;10.75;;;3.55;;
42186;SDS011;27858;51.414;0.018;2022-12-29T02:48:30;25.20;;;3.70;;
42186;SDS011;27858;51.414;0.018;2022-12-29T02:51:09;26.60;;;5.15;;
42186;SDS011;27858;51.414;0.018;2022-12-29T02:53:44;19.75;;;3.97;;
42186;SDS011;27858;51.414;0.018;2022-12-29T02:56:31;10.57;;;3.83;;
42186;SDS011;27858;51.414;0.018;2022-12-29T02:58:57;17.60;;;3.90;;
42186;SDS011;27858;51.414;0.018;2022-12-29T03:01:45;14.57;;;3.97;;
42186;SDS011;27858;51.414;0.018;2022-12-29T03:13:01;9.98;;;2.95;;
42186;SDS011;27858;51.414;0.018;2022-12-29T03:16:11;13.43;;;3.63;;
42186;SDS011;27858;51.414;0.018;2022-12-29T03:21:43;12.02;;;3.42;;
42186;SDS011;27858;51.414;0.018;2022-12-29T03:24:34;29.17;;;5.18;;
42186;SDS011;27858;51.414;0.018;2022-12-29T03:27:07;15.73;;;4.40;;
42186;SDS011;27858;51.414;0.018;2022-12-29T03:32:08;17.98;;;3.88;;
42186;SDS011;27858;51.414;0.018;2022-12-29T03:34:37;22.10;;;4.57;;
42186;SDS011;27858;51.414;0.018;2022-12-29T03:37:06;17.25;;;3.05;;
42186;SDS011;27858;51.414;0.018;2022-12-29T03:39:39;16.65;;;4.28;;
42186;SDS011;27858;51.414;0.018;2022-12-29T03:42:09;12.40;;;4.05;;
42186;SDS011;27858;51.414;0.018;2022-12-29T03:44:40;11.95;;;3.10;;
42186;SDS011;27858;51.414;0.018;2022-12-29T03:47:09;13.82;;;4.80;;
42186;SDS011;27858;51.414;0.018;2022-12-29T03:49:37;20.13;;;5.50;;
42186;SDS011;27858;51.414;0.018;2022-12-29T03:52:05;22.02;;;4.80;;
42186;SDS011;27858;51.414;0.018;2022-12-29T03:54:32;12.77;;;3.35;;
42186;SDS011;27858;51.414;0.018;2022-12-29T03:56:59;14.15;;;4.97;;
42186;SDS011;27858;51.414;0.018;2022-12-29T03:59:26;17.27;;;3.85;;
42186;SDS011;27858;51.414;0.018;2022-12-29T04:01:52;17.23;;;3.80;;
42186;SDS011;27858;51.414;0.018;2022-12-29T04:04:19;17.60;;;4.43;;
42186;SDS011;27858;51.414;0.018;2022-12-29T04:06:46;16.60;;;4.00;;
42186;SDS011;27858;51.414;0.018;2022-12-29T04:09:12;15.15;;;4.05;;
42186;SDS011;27858;51.414;0.018;2022-12-29T04:11:39;15.35;;;3.85;;
42186;SDS011;27858;51.414;0.018;2022-12-29T04:14:06;25.60;;;3.85;;
42186;SDS011;27858;51.414;0.018;2022-12-29T04:16:33;13.85;;;3.17;;
42186;SDS011;27858;51.414;0.018;2022-12-29T04:19:02;21.40;;;3.72;;
42186;SDS011;27858;51.414;0.018;2022-12-29T04:21:28;17.27;;;4.15;;
42186;SDS011;27858;51.414;0.018;2022-12-29T04:23:55;20.15;;;4.15;;
42186;SDS011;27858;51.414;0.018;2022-12-29T04:26:22;19.30;;;3.95;;
42186;SDS011;27858;51.414;0.018;2022-12-29T04:28:49;28.30;;;3.80;;
42186;SDS011;27858;51.414;0.018;2022-12-29T04:31:15;21.95;;;4.78;;
42186;SDS011;27858;51.414;0.018;2022-12-29T04:33:43;12.48;;;3.50;;
42186;SDS011;27858;51.414;0.018;2022-12-29T04:36:10;17.92;;;3.50;;
42186;SDS011;27858;51.414;0.018;2022-12-29T04:38:37;18.60;;;3.72;;
42186;SDS011;27858;51.414;0.018;2022-12-29T04:41:04;10.45;;;3.03;;
42186;SDS011;27858;51.414;0.018;2022-12-29T04:43:30;14.10;;;3.65;;
42186;SDS011;27858;51.414;0.018;2022-12-29T04:45:57;11.27;;;3.78;;
42186;SDS011;27858;51.414;0.018;2022-12-29T04:48:24;16.08;;;4.55;;
42186;SDS011;27858;51.414;0.018;2022-12-29T04:50:50;10.10;;;2.80;;
42186;SDS011;27858;51.414;0.018;2022-12-29T04:53:17;14.60;;;4.53;;
42186;SDS011;27858;51.414;0.018;2022-12-29T04:55:47;14.02;;;3.45;;
42186;SDS011;27858;51.414;0.018;2022-12-29T04:58:15;11.80;;;3.75;;
42186;SDS011;27858;51.414;0.018;2022-12-29T05:00:48;16.83;;;4.38;;
42186;SDS011;27858;51.414;0.018;2022-12-29T05:03:15;12.70;;;3.40;;
42186;SDS011;27858;51.414;0.018;2022-12-29T05:05:43;15.43;;;3.67;;
42186;SDS011;27858;51.414;0.018;2022-12-29T05:08:10;14.40;;;3.65;;
42186;SDS011;27858;51.414;0.018;2022-12-29T05:10:36;15.30;;;3.75;;
42186;SDS011;27858;51.414;0.018;2022-12-29T05:13:04;13.90;;;3.72;;
42186;SDS011;27858;51.414;0.018;2022-12-29T05:15:30;16.95;;;3.55;;
42186;SDS011;27858;51.414;0.018;2022-12-29T05:17:57;14.60;;;3.65;;
42186;SDS011;27858;51.414;0.018;2022-12-29T05:20:24;12.40;;;3.90;;
42186;SDS011;27858;51.414;0.018;2022-12-29T05:22:50;16.13;;;4.80;;
42186;SDS011;27858;51.414;0.018;2022-12-29T05:25:17;13.70;;;2.95;;
42186;SDS011;27858;51.414;0.018;2022-12-29T05:27:44;18.63;;;3.42;;
42186;SDS011;27858;51.414;0.018;2022-12-29T05:30:11;21.05;;;4.57;;
42186;SDS011;27858;51.414;0.018;2022-12-29T05:32:38;15.90;;;2.85;;
42186;SDS011;27858;51.414;0.018;2022-12-29T05:35:05;15.25;;;4.30;;
42186;SDS011;27858;51.414;0.018;2022-12-29T05:37:33;9.38;;;3.50;;
42186;SDS011;27858;51.414;0.018;2022-12-29T05:39:59;14.75;;;3.05;;
42186;SDS011;27858;51.414;0.018;2022-12-29T05:42:26;15.40;;;3.15;;
42186;SDS011;27858;51.414;0.018;2022-12-29T05:44:53;21.67;;;3.80;;
42186;SDS011;27858;51.414;0.018;2022-12-29T05:47:20;17.17;;;3.58;;
42186;SDS011;27858;51.414;0.018;2022-12-29T05:49:46;23.25;;;4.20;;
42186;SDS011;27858;51.414;0.018;2022-12-29T05:52:13;11.70;;;4.05;;
42186;SDS011;27858;51.414;0.018;2022-12-29T05:54:40;16.23;;;3.08;;
42186;SDS011;27858;51.414;0.018;2022-12-29T05:57:07;20.45;;;4.65;;
42186;SDS011;27858;51.414;0.018;2022-12-29T05:59:34;16.02;;;3.60;;
42186;SDS011;27858;51.414;0.018;2022-12-29T06:02:01;10.65;;;2.20;;
42186;SDS011;27858;51.414;0.018;2022-12-29T06:04:28;17.80;;;3.58;;
42186;SDS011;27858;51.414;0.018;2022-12-29T06:06:54;10.73;;;2.17;;
42186;SDS011;27858;51.414;0.018;2022-12-29T06:09:21;10.82;;;2.00;;
42186;SDS011;27858;51.414;0.018;2022-12-29T06:11:48;11.60;;;2.88;;
42186;SDS011;27858;51.414;0.018;2022-12-29T06:14:15;6.22;;;1.95;;
42186;SDS011;27858;51.414;0.018;2022-12-29T06:16:42;17.73;;;2.60;;
42186;SDS011;27858;51.414;0.018;2022-12-29T06:19:09;10.05;;;2.00;;
42186;SDS011;27858;51.414;0.018;2022-12-29T06:21:35;8.02;;;1.98;;
42186;SDS011;27858;51.414;0.018;2022-12-29T06:24:04;6.15;;;1.58;;
42186;SDS011;27858;51.414;0.018;2022-12-29T06:26:31;6.70;;;1.30;;
42186;SDS011;27858;51.414;0.018;2022-12-29T06:28:58;5.50;;;1.65;;
42186;SDS011;27858;51.414;0.018;2022-12-29T06:31:24;5.70;;;1.42;;
42186;SDS011;27858;51.414;0.018;2022-12-29T06:33:51;4.35;;;1.00;;
42186;SDS011;27858;51.414;0.018;2022-12-29T06:36:19;6.25;;;0.98;;
42186;SDS011;27858;51.414;0.018;2022-12-29T06:38:45;5.95;;;1.02;;
42186;SDS011;27858;51.414;0.018;2022-12-29T06:41:12;5.63;;;1.38;;
42186;SDS011;27858;51.414;0.018;2022-12-29T06:43:39;3.22;;;1.20;;
42186;SDS011;27858;51.414;0.018;2022-12-29T06:46:06;13.55;;;2.05;;
42186;SDS011;27858;51.414;0.018;2022-12-29T06:48:32;8.43;;;2.03;;
42186;SDS011;27858;51.414;0.018;2022-12-29T06:50:59;5.32;;;1.35;;
42186;SDS011;27858;51.414;0.018;2022-12-29T06:53:26;6.35;;;1.52;;
42186;SDS011;27858;51.414;0.018;2022-12-29T06:55:52;12.00;;;2.33;;
42186;SDS011;27858;51.414;0.018;2022-12-29T06:58:19;1.90;;;1.02;;
42186;SDS011;27858;51.414;0.018;2022-12-29T07:00:46;6.30;;;1.25;;
42186;SDS011;27858;51.414;0.018;2022-12-29T07:03:14;3.72;;;0.73;;
42186;SDS011;27858;51.414;0.018;2022-12-29T07:05:42;4.07;;;0.90;;
42186;SDS011;27858;51.414;0.018;2022-12-29T07:08:09;13.05;;;1.33;;
42186;SDS011;27858;51.414;0.018;2022-12-29T07:10:35;3.75;;;0.77;;
42186;SDS011;27858;51.414;0.018;2022-12-29T07:13:02;2.90;;;0.85;;
42186;SDS011;27858;51.414;0.018;2022-12-29T07:15:29;3.28;;;1.25;;
42186;SDS011;27858;51.414;0.018;2022-12-29T07:17:55;1.63;;;0.50;;
42186;SDS011;27858;51.414;0.018;2022-12-29T07:20:22;6.95;;;1.20;;
42186;SDS011;27858;51.414;0.018;2022-12-29T07:22:55;2.60;;;0.70;;
42186;SDS011;27858;51.414;0.018;2022-12-29T07:25:22;2.83;;;0.50;;
42186;SDS011;27858;51.414;0.018;2022-12-29T07:27:49;5.25;;;0.65;;
42186;SDS011;27858;51.414;0.018;2022-12-29T07:30:16;3.95;;;1.38;;
42186;SDS011;27858;51.414;0.018;2022-12-29T07:32:43;3.28;;;0.73;;
42186;SDS011;27858;51.414;0.018;2022-12-29T07:35:09;5.30;;;1.60;;
42186;SDS011;27858;51.414;0.018;2022-12-29T07:37:36;3.53;;;1.10;;
42186;SDS011;27858;51.414;0.018;2022-12-29T07:40:03;1.60;;;0.77;;
42186;SDS011;27858;51.414;0.018;2022-12-29T07:42:30;2.47;;;0.95;;
42186;SDS011;27858;51.414;0.018;2022-12-29T07:44:57;5.72;;;1.08;;
42186;SDS011;27858;51.414;0.018;2022-12-29T07:47:24;9.02;;;2.08;;
42186;SDS011;27858;51.414;0.018;2022-12-29T07:49:52;1.95;;;0.70;;
42186;SDS011;27858;51.414;0.018;2022-12-29T07:52:19;5.05;;;1.08;;
42186;SDS011;27858;51.414;0.018;2022-12-29T07:54:46;5.07;;;1.08;;
42186;SDS011;27858;51.414;0.018;2022-12-29T07:57:12;4.38;;;1.05;;
42186;SDS011;27858;51.414;0.018;2022-12-29T07:59:39;5.78;;;0.70;;
42186;SDS011;27858;51.414;0.018;2022-12-29T08:02:08;3.33;;;1.15;;
42186;SDS011;27858;51.414;0.018;2022-12-29T08:04:36;5.38;;;1.65;;
42186;SDS011;27858;51.414;0.018;2022-12-29T08:07:03;9.55;;;0.95;;
42186;SDS011;27858;51.414;0.018;2022-12-29T08:09:30;3.88;;;1.20;;
42186;SDS011;27858;51.414;0.018;2022-12-29T08:11:56;3.40;;;0.88;;
42186;SDS011;27858;51.414;0.018;2022-12-29T08:14:23;2.50;;;0.95;;
42186;SDS011;27858;51.414;0.018;2022-12-29T08:16:50;13.65;;;1.85;;
42186;SDS011;27858;51.414;0.018;2022-12-29T08:19:16;3.58;;;0.50;;
42186;SDS011;27858;51.414;0.018;2022-12-29T08:21:43;3.80;;;0.85;;
42186;SDS011;27858;51.414;0.018;2022-12-29T08:24:13;3.38;;;0.75;;
42186;SDS011;27858;51.414;0.018;2022-12-29T08:26:41;4.55;;;0.80;;
42186;SDS011;27858;51.414;0.018;2022-12-29T08:29:08;2.00;;;1.15;;
42186;SDS011;27858;51.414;0.018;2022-12-29T08:31:35;3.58;;;0.70;;
42186;SDS011;27858;51.414;0.018;2022-12-29T08:34:02;12.95;;;1.38;;
42186;SDS011;27858;51.414;0.018;2022-12-29T08:36:29;2.53;;;0.93;;
42186;SDS011;27858;51.414;0.018;2022-12-29T08:38:56;3.85;;;0.50;;
42186;SDS011;27858;51.414;0.018;2022-12-29T08:41:23;5.03;;;1.38;;
42186;SDS011;27858;51.414;0.018;2022-12-29T08:43:50;3.45;;;0.80;;
42186;SDS011;27858;51.414;0.018;2022-12-29T08:46:17;3.33;;;1.05;;
42186;SDS011;27858;51.414;0.018;2022-12-29T08:48:44;2.97;;;0.95;;
42186;SDS011;27858;51.414;0.018;2022-12-29T08:51:10;2.22;;;0.88;;
42186;SDS011;27858;51.414;0.018;2022-12-29T08:53:37;4.90;;;0.80;;
42186;SDS011;27858;51.414;0.018;2022-12-29T08:56:04;5.22;;;1.00;;
42186;SDS011;27858;51.414;0.018;2022-12-29T08:58:31;4.65;;;0.98;;
42186;SDS011;27858;51.414;0.018;2022-12-29T09:00:58;2.35;;;1.00;;
42186;SDS011;27858;51.414;0.018;2022-12-29T09:03:25;1.98;;;0.40;;
42186;SDS011;27858;51.414;0.018;2022-12-29T09:06:12;4.88;;;0.95;;
42186;SDS011;27858;51.414;0.018;2022-12-29T09:08:41;4.65;;;1.05;;
42186;SDS011;27858;51.414;0.018;2022-12-29T09:11:08;5.32;;;0.75;;
42186;SDS011;27858;51.414;0.018;2022-12-29T09:13:57;6.25;;;1.58;;
42186;SDS011;27858;51.414;0.018;2022-12-29T09:16:24;3.72;;;1.27;;
42186;SDS011;27858;51.414;0.018;2022-12-29T09:18:51;11.02;;;1.60;;
42186;SDS011;27858;51.414;0.018;2022-12-29T09:21:17;4.28;;;1.08;;
42186;SDS011;27858;51.414;0.018;2022-12-29T09:23:44;5.07;;;0.90;;
42186;SDS011;27858;51.414;0.018;2022-12-29T09:26:11;2.80;;;0.90;;
42186;SDS011;27858;51.414;0.018;2022-12-29T09:28:38;3.88;;;0.70;;
42186;SDS011;27858;51.414;0.018;2022-12-29T09:31:05;3.75;;;1.48;;
42186;SDS011;27858;51.414;0.018;2022-12-29T09:33:32;1.25;;;0.70;;
42186;SDS011;27858;51.414;0.018;2022-12-29T09:36:02;6.70;;;1.27;;
42186;SDS011;27858;51.414;0.018;2022-12-29T09:38:29;5.82;;;1.35;;
42186;SDS011;27858;51.414;0.018;2022-12-29T09:41:01;4.68;;;0.98;;
42186;SDS011;27858;51.414;0.018;2022-12-29T09:43:42;7.22;;;1.95;;
42186;SDS011;27858;51.414;0.018;2022-12-29T09:46:46;7.43;;;1.30;;
42186;SDS011;27858;51.414;0.018;2022-12-29T09:52:55;5.00;;;0.70;;
42186;SDS011;27858;51.414;0.018;2022-12-29T09:55:10;3.35;;;0.73;;
42186;SDS011;27858;51.414;0.018;2022-12-29T09:57:48;3.80;;;1.23;;
42186;SDS011;27858;51.414;0.018;2022-12-29T10:03:32;6.40;;;1.50;;
42186;SDS011;27858;51.414;0.018;2022-12-29T10:06:22;1.67;;;0.73;;
42186;SDS011;27858;51.414;0.018;2022-12-29T10:23:42;1.63;;;0.55;;
42186;SDS011;27858;51.414;0.018;2022-12-29T10:26:21;6.07;;;1.02;;
42186;SDS011;27858;51.414;0.018;2022-12-29T10:29:05;5.93;;;0.73;;
42186;SDS011;27858;51.414;0.018;2022-12-29T10:31:38;1.15;;;0.50;;
42186;SDS011;27858;51.414;0.018;2022-12-29T10:34:15;1.35;;;0.57;;
42186;SDS011;27858;51.414;0.018;2022-12-29T10:36:49;4.53;;;0.82;;
42186;SDS011;27858;51.414;0.018;2022-12-29T10:39:30;2.45;;;0.50;;
42186;SDS011;27858;51.414;0.018;2022-12-29T10:42:37;3.28;;;1.02;;
42186;SDS011;27858;51.414;0.018;2022-12-29T10:45:03;5.03;;;0.98;;
42186;SDS011;27858;51.414;0.018;2022-12-29T10:47:33;3.25;;;0.52;;
42186;SDS011;27858;51.414;0.018;2022-12-29T10:52:31;4.80;;;0.60;;
42186;SDS011;27858;51.414;0.018;2022-12-29T10:55:00;3.10;;;0.82;;
42186;SDS011;27858;51.414;0.018;2022-12-29T10:57:38;3.10;;;0.50;;
42186;SDS011;27858;51.414;0.018;2022-12-29T11:00:12;7.65;;;1.25;;
42186;SDS011;27858;51.414;0.018;2022-12-29T11:05:36;5.07;;;1.05;;
42186;SDS011;27858;51.414;0.018;2022-12-29T11:08:24;1.20;;;0.57;;
42186;SDS011;27858;51.414;0.018;2022-12-29T11:11:00;1.77;;;0.85;;
42186;SDS011;27858;51.414;0.018;2022-12-29T11:13:32;1.90;;;0.93;;
42186;SDS011;27858;51.414;0.018;2022-12-29T11:16:04;2.05;;;0.50;;
42186;SDS011;27858;51.414;0.018;2022-12-29T11:18:37;3.10;;;0.70;;
42186;SDS011;27858;51.414;0.018;2022-12-29T11:21:07;1.75;;;0.50;;
42186;SDS011;27858;51.414;0.018;2022-12-29T11:26:50;2.30;;;0.82;;
42186;SDS011;27858;51.414;0.018;2022-12-29T11:29:36;2.33;;;1.02;;
42186;SDS011;27858;51.414;0.018;2022-12-29T11:32:21;1.00;;;0.68;;
42186;SDS011;27858;51.414;0.018;2022-12-29T11:34:54;3.30;;;0.85;;
42186;SDS011;27858;51.414;0.018;2022-12-29T11:45:25;5.25;;;1.20;;
42186;SDS011;27858;51.414;0.018;2022-12-29T11:50:31;5.13;;;0.98;;
42186;SDS011;27858;51.414;0.018;2022-12-29T11:55:54;4.15;;;1.17;;
42186;SDS011;27858;51.414;0.018;2022-12-29T11:58:29;2.97;;;1.17;;
42186;SDS011;27858;51.414;0.018;2022-12-29T12:01:04;4.25;;;0.80;;
42186;SDS011;27858;51.414;0.018;2022-12-29T12:03:38;18.67;;;1.70;;
42186;SDS011;27858;51.414;0.018;2022-12-29T12:06:12;4.60;;;1.33;;
42186;SDS011;27858;51.414;0.018;2022-12-29T12:08:48;9.80;;;1.63;;
42186;SDS011;27858;51.414;0.018;2022-12-29T12:11:26;5.72;;;2.42;;
42186;SDS011;27858;51.414;0.018;2022-12-29T12:14:04;3.33;;;1.27;;
42186;SDS011;27858;51.414;0.018;2022-12-29T12:16:43;4.70;;;1.48;;
42186;SDS011;27858;51.414;0.018;2022-12-29T12:41:05;6.40;;;1.55;;
42186;SDS011;27858;51.414;0.018;2022-12-29T13:03:04;9.85;;;3.28;;
42186;SDS011;27858;51.414;0.018;2022-12-29T13:08:49;9.80;;;1.63;;
42186;SDS011;27858;51.414;0.018;2022-12-29T13:17:46;3.22;;;1.58;;
42186;SDS011;27858;51.414;0.018;2022-12-29T13:20:34;7.82;;;1.83;;
42186;SDS011;27858;51.414;0.018;2022-12-29T13:23:09;7.63;;;2.03;;
42186;SDS011;27858;51.414;0.018;2022-12-29T13:37:09;7.00;;;2.08;;
42186;SDS011;27858;51.414;0.018;2022-12-29T13:39:45;8.15;;;3.05;;
42186;SDS011;27858;51.414;0.018;2022-12-29T13:42:18;8.93;;;1.50;;
42186;SDS011;27858;51.414;0.018;2022-12-29T13:44:46;5.00;;;1.38;;
42186;SDS011;27858;51.414;0.018;2022-12-29T13:47:29;5.55;;;1.77;;
42186;SDS011;27858;51.414;0.018;2022-12-29T13:50:03;6.25;;;2.35;;
42186;SDS011;27858;51.414;0.018;2022-12-29T13:52:40;13.82;;;2.63;;
42186;SDS011;27858;51.414;0.018;2022-12-29T14:01:20;3.88;;;1.25;;
42186;SDS011;27858;51.414;0.018;2022-12-29T14:04:21;9.45;;;1.55;;
42186;SDS011;27858;51.414;0.018;2022-12-29T14:07:01;8.45;;;3.10;;
42186;SDS011;27858;51.414;0.018;2022-12-29T14:10:18;6.60;;;1.75;;
42186;SDS011;27858;51.414;0.018;2022-12-29T14:12:42;6.03;;;1.67;;
42186;SDS011;27858;51.414;0.018;2022-12-29T14:17:37;5.35;;;2.15;;
42186;SDS011;27858;51.414;0.018;2022-12-29T14:20:15;13.70;;;2.28;;
42186;SDS011;27858;51.414;0.018;2022-12-29T14:22:58;5.68;;;2.05;;
42186;SDS011;27858;51.414;0.018;2022-12-29T14:28:25;8.75;;;2.00;;
42186;SDS011;27858;51.414;0.018;2022-12-29T14:30:55;5.25;;;1.85;;
42186;SDS011;27858;51.414;0.018;2022-12-29T14:33:28;6.25;;;1.17;;
42186;SDS011;27858;51.414;0.018;2022-12-29T14:35:57;16.15;;;1.88;;
42186;SDS011;27858;51.414;0.018;2022-12-29T14:38:50;9.50;;;2.28;;
42186;SDS011;27858;51.414;0.018;2022-12-29T14:41:35;6.47;;;1.50;;
42186;SDS011;27858;51.414;0.018;2022-12-29T14:44:15;3.45;;;1.08;;
42186;SDS011;27858;51.414;0.018;2022-12-29T14:49:16;9.48;;;1.90;;
42186;SDS011;27858;51.414;0.018;2022-12-29T14:51:46;5.43;;;1.65;;
42186;SDS011;27858;51.414;0.018;2022-12-29T14:54:57;10.73;;;2.03;;
42186;SDS011;27858;51.414;0.018;2022-12-29T14:57:05;4.20;;;1.50;;
42186;SDS011;27858;51.414;0.018;2022-12-29T14:59:34;7.40;;;2.22;;
42186;SDS011;27858;51.414;0.018;2022-12-29T15:02:03;8.65;;;2.05;;
42186;SDS011;27858;51.414;0.018;2022-12-29T15:04:39;4.35;;;1.52;;
42186;SDS011;27858;51.414;0.018;2022-12-29T15:07:07;9.40;;;2.78;;
42186;SDS011;27858;51.414;0.018;2022-12-29T15:15:01;13.20;;;2.70;;
42186;SDS011;27858;51.414;0.018;2022-12-29T15:17:42;7.97;;;1.67;;
42186;SDS011;27858;51.414;0.018;2022-12-29T15:20:28;16.92;;;2.95;;
42186;SDS011;27858;51.414;0.018;2022-12-29T15:22:58;4.88;;;1.55;;
42186;SDS011;27858;51.414;0.018;2022-12-29T15:25:29;8.85;;;1.92;;
42186;SDS011;27858;51.414;0.018;2022-12-29T15:27:59;2.50;;;0.90;;
42186;SDS011;27858;51.414;0.018;2022-12-29T15:30:28;6.43;;;1.92;;
42186;SDS011;27858;51.414;0.018;2022-12-29T15:32:55;4.72;;;1.85;;
42186;SDS011;27858;51.414;0.018;2022-12-29T15:37:52;9.88;;;3.05;;
42186;SDS011;27858;51.414;0.018;2022-12-29T15:40:22;12.00;;;1.80;;
42186;SDS011;27858;51.414;0.018;2022-12-29T15:42:52;3.90;;;0.93;;
42186;SDS011;27858;51.414;0.018;2022-12-29T15:45:38;3.65;;;1.10;;
42186;SDS011;27858;51.414;0.018;2022-12-29T15:48:05;9.02;;;2.30;;
42186;SDS011;27858;51.414;0.018;2022-12-29T15:50:40;6.78;;;2.10;;
42186;SDS011;27858;51.414;0.018;2022-12-29T15:53:10;7.55;;;2.55;;
42186;SDS011;27858;51.414;0.018;2022-12-29T15:55:39;5.57;;;1.52;;
42186;SDS011;27858;51.414;0.018;2022-12-29T15:58:18;6.07;;;1.90;;
42186;SDS011;27858;51.414;0.018;2022-12-29T16:00:51;13.02;;;2.75;;
42186;SDS011;27858;51.414;0.018;2022-12-29T16:03:24;6.57;;;1.50;;
42186;SDS011;27858;51.414;0.018;2022-12-29T16:06:06;6.15;;;1.83;;
42186;SDS011;27858;51.414;0.018;2022-12-29T16:08:57;6.10;;;1.40;;
42186;SDS011;27858;51.414;0.018;2022-12-29T16:11:36;6.50;;;2.00;;
42186;SDS011;27858;51.414;0.018;2022-12-29T16:14:09;10.95;;;2.20;;
42186;SDS011;27858;51.414;0.018;2022-12-29T16:16:41;7.82;;;1.70;;
42186;SDS011;27858;51.414;0.018;2022-12-29T16:19:15;7.28;;;1.60;;
42186;SDS011;27858;51.414;0.018;2022-12-29T16:21:44;6.60;;;1.60;;
42186;SDS011;27858;51.414;0.018;2022-12-29T16:24:13;17.98;;;2.60;;
42186;SDS011;27858;51.414;0.018;2022-12-29T16:26:46;6.97;;;1.45;;
42186;SDS011;27858;51.414;0.018;2022-12-29T16:29:15;7.22;;;1.60;;
42186;SDS011;27858;51.414;0.018;2022-12-29T16:31:56;6.47;;;2.70;;
42186;SDS011;27858;51.414;0.018;2022-12-29T16:37:01;6.43;;;1.85;;
42186;SDS011;27858;51.414;0.018;2022-12-29T16:39:30;5.13;;;1.67;;
42186;SDS011;27858;51.414;0.018;2022-12-29T16:41:59;9.52;;;2.50;;
42186;SDS011;27858;51.414;0.018;2022-12-29T16:44:27;9.60;;;2.45;;
42186;SDS011;27858;51.414;0.018;2022-12-29T16:49:26;5.30;;;1.58;;
42186;SDS011;27858;51.414;0.018;2022-12-29T16:51:53;6.97;;;1.70;;
42186;SDS011;27858;51.414;0.018;2022-12-29T16:54:25;7.88;;;1.63;;
42186;SDS011;27858;51.414;0.018;2022-12-29T16:56:58;6.13;;;2.20;;
42186;SDS011;27858;51.414;0.018;2022-12-29T16:59:59;8.82;;;2.20;;
42186;SDS011;27858;51.414;0.018;2022-12-29T17:02:21;6.75;;;2.08;;
42186;SDS011;27858;51.414;0.018;2022-12-29T17:04:50;7.35;;;1.73;;
42186;SDS011;27858;51.414;0.018;2022-12-29T17:07:20;8.68;;;1.90;;
42186;SDS011;27858;51.414;0.018;2022-12-29T17:09:49;7.30;;;1.23;;
42186;SDS011;27858;51.414;0.018;2022-12-29T17:12:17;11.23;;;2.75;;
42186;SDS011;27858;51.414;0.018;2022-12-29T17:17:34;8.02;;;2.35;;
42186;SDS011;27858;51.414;0.018;2022-12-29T17:20:05;8.98;;;2.50;;
42186;SDS011;27858;51.414;0.018;2022-12-29T17:22:35;6.25;;;1.75;;
42186;SDS011;27858;51.414;0.018;2022-12-29T17:25:02;7.80;;;2.13;;
42186;SDS011;27858;51.414;0.018;2022-12-29T17:30:32;5.18;;;1.77;;
42186;SDS011;27858;51.414;0.018;2022-12-29T17:33:02;8.15;;;1.48;;
42186;SDS011;27858;51.414;0.018;2022-12-29T17:35:31;11.68;;;3.45;;
42186;SDS011;27858;51.414;0.018;2022-12-29T17:37:57;4.03;;;1.38;;
42186;SDS011;27858;51.414;0.018;2022-12-29T17:40:28;8.65;;;1.70;;
42186;SDS011;27858;51.414;0.018;2022-12-29T17:42:58;4.72;;;2.22;;
42186;SDS011;27858;51.414;0.018;2022-12-29T17:45:26;6.57;;;1.40;;
42186;SDS011;27858;51.414;0.018;2022-12-29T17:47:54;4.88;;;1.42;;
42186;SDS011;27858;51.414;0.018;2022-12-29T17:50:25;6.55;;;1.50;;
42186;SDS011;27858;51.414;0.018;2022-12-29T17:52:55;5.40;;;1.63;;
42186;SDS011;27858;51.414;0.018;2022-12-29T17:55:36;5.00;;;1.30;;
42186;SDS011;27858;51.414;0.018;2022-12-29T17:58:20;4.10;;;1.70;;
42186;SDS011;27858;51.414;0.018;2022-12-29T18:00:52;4.35;;;1.67;;
42186;SDS011;27858;51.414;0.018;2022-12-29T18:03:25;9.27;;;1.17;;
42186;SDS011;27858;51.414;0.018;2022-12-29T18:05:57;6.15;;;1.83;;